Time;durP1;ratioP1;P1;durP2;ratioP2;P2;SDS_P1;SDS_P2;PMS_P1;PMS_P2;Temp;Humidity;BMP_temperature;BMP_pressure;BME280_temperature;BME280_humidity;BME280_pressure;Samples;Min_cycle;Max_cycle;Signal;HPM_P1;HPM_P2
2023/09/06 00:00:50;;;;;;;7.47;4.32;;;24.40;56.20;;;;;;5085039;28;20235;-30
2023/09/06 00:03:18;;;;;;;6.55;4.07;;;24.30;56.20;;;;;;5085346;28;20224;-30
2023/09/06 00:05:48;;;;;;;7.47;4.22;;;24.30;56.30;;;;;;5066154;28;20213;-30
2023/09/06 00:08:16;;;;;;;6.53;4.05;;;24.30;56.30;;;;;;5083525;28;20202;-30
2023/09/06 00:10:46;;;;;;;5.95;3.88;;;24.20;56.30;;;;;;5084829;28;20203;-30
2023/09/06 00:13:13;;;;;;;5.60;4.05;;;24.20;56.40;;;;;;5066664;28;20205;-30
2023/09/06 00:15:47;;;;;;;7.80;4.15;;;24.10;56.30;;;;;;5082676;28;20227;-30
2023/09/06 00:18:16;;;;;;;10.43;4.43;;;24.10;56.40;;;;;;5079915;28;20203;-30
2023/09/06 00:20:45;;;;;;;6.07;4.50;;;24.10;56.40;;;;;;5067028;28;20982;-30
2023/09/06 00:23:13;;;;;;;5.25;3.80;;;24.00;56.50;;;;;;5086499;28;20199;-29
2023/09/06 00:25:43;;;;;;;6.07;4.57;;;24.00;56.50;;;;;;5086063;28;20533;-30
2023/09/06 00:28:15;;;;;;;5.82;4.25;;;24.00;56.60;;;;;;5068417;28;20750;-31
2023/09/06 00:30:44;;;;;;;7.60;4.47;;;23.90;56.60;;;;;;5051980;28;20217;-29
2023/09/06 00:33:14;;;;;;;7.30;4.43;;;23.90;56.60;;;;;;5086108;28;20307;-30
2023/09/06 00:35:43;;;;;;;6.13;4.50;;;23.90;56.70;;;;;;5083678;28;20255;-30
2023/09/06 00:38:11;;;;;;;7.53;4.15;;;23.80;56.70;;;;;;5065174;28;20282;-29
2023/09/06 00:40:39;;;;;;;6.13;4.05;;;23.80;56.70;;;;;;5082930;28;20205;-30
2023/09/06 00:43:08;;;;;;;7.13;4.18;;;23.80;56.80;;;;;;5066356;28;20191;-30
2023/09/06 00:45:44;;;;;;;5.53;3.50;;;23.70;56.70;;;;;;5082376;28;20695;-30
2023/09/06 00:48:23;;;;;;;7.93;4.38;;;23.70;56.90;;;;;;5083004;28;20214;-29
2023/09/06 00:50:54;;;;;;;6.22;3.80;;;23.70;56.80;;;;;;5065454;28;20752;-29
2023/09/06 00:53:29;;;;;;;6.78;3.60;;;23.60;57.40;;;;;;5066375;28;20215;-30
2023/09/06 00:56:01;;;;;;;5.03;3.63;;;23.60;56.80;;;;;;5084079;28;20210;-30
2023/09/06 00:58:29;;;;;;;3.72;3.20;;;23.50;56.80;;;;;;5064331;28;20195;-29
2023/09/06 01:00:59;;;;;;;4.90;3.35;;;23.50;56.80;;;;;;5065495;28;20234;-30
2023/09/06 01:03:28;;;;;;;4.65;3.15;;;23.50;56.90;;;;;;5051787;28;20219;-30
2023/09/06 01:06:02;;;;;;;3.80;3.28;;;23.40;56.80;;;;;;5083708;28;20203;-29
2023/09/06 01:08:40;;;;;;;5.18;3.78;;;23.40;56.80;;;;;;5070652;28;20332;-29
2023/09/06 01:11:14;;;;;;;4.32;3.20;;;23.40;56.90;;;;;;5069945;28;20203;-30
2023/09/06 01:13:41;;;;;;;6.93;3.25;;;23.30;56.90;;;;;;5072168;28;20228;-30
2023/09/06 01:16:12;;;;;;;3.67;3.00;;;23.30;56.80;;;;;;5053947;28;20241;-29
2023/09/06 01:18:42;;;;;;;6.53;3.00;;;23.30;56.80;;;;;;5053256;28;20284;-29
2023/09/06 01:21:16;;;;;;;6.85;3.40;;;23.20;56.80;;;;;;5066627;28;20776;-30
2023/09/06 01:23:44;;;;;;;5.25;2.97;;;23.20;56.80;;;;;;5083848;28;20297;-30
2023/09/06 01:26:12;;;;;;;3.63;2.92;;;23.20;56.80;;;;;;5065087;28;20206;-30
2023/09/06 01:28:40;;;;;;;5.47;3.20;;;23.10;56.80;;;;;;5065063;28;20294;-29
2023/09/06 01:31:09;;;;;;;5.88;3.08;;;23.10;56.80;;;;;;5083675;28;20685;-30
2023/09/06 01:33:37;;;;;;;5.85;3.00;;;23.00;56.80;;;;;;5082841;28;20203;-30
2023/09/06 01:36:04;;;;;;;5.47;3.15;;;23.00;56.80;;;;;;5082742;28;20230;-30
2023/09/06 01:38:32;;;;;;;3.45;3.05;;;23.00;56.80;;;;;;5085771;28;20772;-30
2023/09/06 01:41:05;;;;;;;3.95;2.90;;;23.00;56.80;;;;;;5087993;28;20198;-30
2023/09/06 01:43:33;;;;;;;5.28;2.88;;;22.90;56.90;;;;;;5069468;28;20198;-29
2023/09/06 01:46:00;;;;;;;4.80;3.35;;;22.90;56.90;;;;;;5087686;28;20222;-29
2023/09/06 01:48:27;;;;;;;3.30;3.00;;;22.80;56.90;;;;;;5087703;28;20209;-29
2023/09/06 01:50:55;;;;;;;5.97;3.55;;;22.80;56.90;;;;;;5086882;28;20199;-30
2023/09/06 01:53:23;;;;;;;7.70;3.38;;;22.80;57.00;;;;;;5088178;28;20230;-29
2023/09/06 01:55:52;;;;;;;7.03;3.63;;;22.70;56.90;;;;;;5085545;28;20359;-29
2023/09/06 01:58:19;;;;;;;4.43;3.00;;;22.70;57.00;;;;;;5068937;28;20217;-28
2023/09/06 02:00:48;;;;;;;4.05;3.15;;;22.60;57.00;;;;;;5085518;28;20230;-29
2023/09/06 02:03:16;;;;;;;6.60;3.67;;;22.60;57.00;;;;;;5087172;28;20211;-29
2023/09/06 02:05:44;;;;;;;6.82;3.53;;;22.60;57.10;;;;;;5086074;28;20576;-30
2023/09/06 02:08:16;;;;;;;4.57;3.85;;;22.60;57.10;;;;;;5071184;28;20561;-29
2023/09/06 02:10:45;;;;;;;5.10;3.65;;;22.50;57.10;;;;;;5068232;28;20284;-29
2023/09/06 02:13:12;;;;;;;6.28;3.40;;;22.50;57.10;;;;;;5068642;28;20214;-29
2023/09/06 02:15:41;;;;;;;8.20;3.97;;;22.50;57.20;;;;;;5050347;28;20223;-29
2023/09/06 02:18:09;;;;;;;6.53;3.70;;;22.40;57.20;;;;;;5050524;28;20696;-29
2023/09/06 02:20:38;;;;;;;4.53;3.15;;;22.40;57.20;;;;;;5048571;28;20218;-29
2023/09/06 02:23:10;;;;;;;4.63;3.42;;;22.40;57.20;;;;;;5049014;28;20198;-29
2023/09/06 02:25:45;;;;;;;4.47;3.65;;;22.30;57.20;;;;;;5067150;28;20852;-29
2023/09/06 02:28:14;;;;;;;7.22;3.83;;;22.30;57.30;;;;;;5066797;28;20222;-29
2023/09/06 02:30:41;;;;;;;6.28;3.80;;;22.30;57.30;;;;;;5066530;28;20230;-31
2023/09/06 02:33:12;;;;;;;3.75;3.15;;;22.30;57.30;;;;;;5066508;28;20289;-30
2023/09/06 02:35:41;;;;;;;4.00;3.60;;;22.20;57.40;;;;;;5065151;28;20234;-30
2023/09/06 02:38:14;;;;;;;4.47;3.80;;;22.20;57.40;;;;;;5048738;28;20584;-30
2023/09/06 02:40:46;;;;;;;6.68;3.65;;;22.20;57.50;;;;;;5066586;28;20433;-31
2023/09/06 02:43:16;;;;;;;4.40;3.60;;;22.10;57.40;;;;;;5066645;28;20196;-30
2023/09/06 02:45:49;;;;;;;5.32;3.35;;;22.10;57.50;;;;;;5047987;28;20247;-31
2023/09/06 02:48:18;;;;;;;4.30;3.35;;;22.10;57.50;;;;;;5048148;28;20606;-31
2023/09/06 02:50:48;;;;;;;4.20;3.42;;;22.00;57.50;;;;;;5065222;28;20263;-31
2023/09/06 02:53:20;;;;;;;4.70;3.30;;;22.00;57.50;;;;;;5048275;28;20200;-31
2023/09/06 02:55:53;;;;;;;6.05;3.30;;;22.00;57.50;;;;;;5064763;28;20275;-31
2023/09/06 02:58:26;;;;;;;4.40;3.60;;;21.90;57.50;;;;;;5066676;28;20295;-30
2023/09/06 03:00:57;;;;;;;7.63;3.35;;;21.90;57.60;;;;;;5065863;28;20257;-31
2023/09/06 03:03:26;;;;;;;5.65;3.40;;;21.90;57.60;;;;;;5087958;28;20226;-31
2023/09/06 03:05:58;;;;;;;4.72;3.72;;;21.90;57.60;;;;;;5069043;28;20191;-31
2023/09/06 03:08:28;;;;;;;4.18;3.25;;;21.80;57.60;;;;;;5088145;28;20195;-31
2023/09/06 03:10:57;;;;;;;4.82;3.40;;;21.80;57.60;;;;;;5086767;28;20207;-31
2023/09/06 03:13:28;;;;;;;6.18;3.95;;;21.80;57.60;;;;;;5086195;28;20218;-31
2023/09/06 03:15:59;;;;;;;6.10;3.78;;;21.80;57.70;;;;;;5085933;28;20280;-30
2023/09/06 03:18:30;;;;;;;4.53;3.75;;;21.80;57.60;;;;;;5085810;28;20199;-30
2023/09/06 03:21:04;;;;;;;6.18;3.40;;;21.70;57.60;;;;;;5085305;28;20583;-27
2023/09/06 03:23:32;;;;;;;5.18;3.67;;;21.70;57.70;;;;;;5085985;28;20214;-27
2023/09/06 03:26:05;;;;;;;7.93;3.53;;;21.70;57.70;;;;;;5085595;28;20906;-26
2023/09/06 03:28:33;;;;;;;5.75;3.28;;;21.70;57.70;;;;;;5086231;28;20199;-27
2023/09/06 03:31:03;;;;;;;4.50;3.85;;;21.70;57.80;;;;;;5050761;28;20206;-27
2023/09/06 03:33:31;;;;;;;5.90;3.88;;;21.70;57.70;;;;;;5084688;28;20199;-25
2023/09/06 03:35:58;;;;;;;5.03;3.85;;;21.60;57.70;;;;;;5066804;28;20360;-25
2023/09/06 03:38:28;;;;;;;7.05;3.65;;;21.60;57.70;;;;;;5067787;28;20214;-25
2023/09/06 03:41:01;;;;;;;5.63;4.18;;;21.60;57.80;;;;;;5085712;28;20194;-26
2023/09/06 03:43:32;;;;;;;7.88;3.85;;;21.60;57.80;;;;;;5085730;28;20190;-25
2023/09/06 03:46:07;;;;;;;5.57;4.18;;;21.50;57.80;;;;;;5050493;28;20210;-28
2023/09/06 03:48:35;;;;;;;5.40;4.00;;;21.50;58.40;;;;;;5085420;28;20258;-25
2023/09/06 03:51:04;;;;;;;5.43;4.03;;;21.50;57.80;;;;;;5084443;28;20229;-25
2023/09/06 03:53:37;;;;;;;6.25;4.13;;;21.50;57.90;;;;;;5083594;28;20202;-25
2023/09/06 03:56:05;;;;;;;5.20;4.25;;;21.50;57.90;;;;;;5072897;28;20219;-25
2023/09/06 03:58:34;;;;;;;5.00;4.10;;;21.40;57.80;;;;;;5048362;28;20216;-25
2023/09/06 04:01:04;;;;;;;7.90;3.63;;;21.40;57.90;;;;;;5065566;28;20243;-25
2023/09/06 04:03:31;;;;;;;5.55;3.88;;;21.40;57.90;;;;;;5066560;28;20601;-28
2023/09/06 04:06:02;;;;;;;5.18;4.10;;;21.40;57.90;;;;;;5072802;28;20215;-29
2023/09/06 04:08:31;;;;;;;6.22;4.00;;;21.30;57.90;;;;;;5065563;28;20571;-29
2023/09/06 04:11:01;;;;;;;4.53;4.10;;;21.30;58.00;;;;;;5046895;28;20208;-30
2023/09/06 04:13:28;;;;;;;6.10;4.45;;;21.30;58.00;;;;;;5064965;28;20194;-29
2023/09/06 04:15:57;;;;;;;7.15;4.53;;;21.30;58.10;;;;;;5064535;28;20281;-28
2023/09/06 04:18:25;;;;;;;6.63;4.10;;;21.20;58.00;;;;;;5064574;28;20593;-29
2023/09/06 04:20:52;;;;;;;7.20;4.32;;;21.20;58.00;;;;;;5063606;28;20280;-29
2023/09/06 04:23:19;;;;;;;4.80;4.30;;;21.20;58.10;;;;;;5062774;28;20281;-29
2023/09/06 04:25:48;;;;;;;6.82;4.28;;;21.10;58.10;;;;;;5079488;28;20203;-28
2023/09/06 04:28:25;;;;;;;7.63;4.40;;;21.10;58.10;;;;;;5064206;28;20192;-29
2023/09/06 04:30:52;;;;;;;8.07;5.00;;;21.10;58.10;;;;;;5062591;28;20249;-28
2023/09/06 04:33:22;;;;;;;6.68;4.65;;;21.10;58.20;;;;;;5079799;28;20196;-29
2023/09/06 04:35:50;;;;;;;7.88;4.40;;;21.10;58.20;;;;;;5062038;28;20857;-28
2023/09/06 04:38:23;;;;;;;6.38;4.18;;;21.00;58.20;;;;;;5064065;28;20582;-29
2023/09/06 04:40:53;;;;;;;8.68;4.53;;;21.00;58.20;;;;;;5063768;28;20693;-29
2023/09/06 04:43:23;;;;;;;6.82;4.57;;;21.00;58.20;;;;;;5064531;28;20215;-28
2023/09/06 04:45:52;;;;;;;7.07;4.18;;;21.00;58.30;;;;;;5073450;28;20613;-28
2023/09/06 04:48:24;;;;;;;6.60;4.60;;;21.00;58.30;;;;;;5082872;28;20334;-29
2023/09/06 04:50:52;;;;;;;5.43;4.15;;;20.90;58.30;;;;;;5079045;28;20326;-28
2023/09/06 04:53:21;;;;;;;6.25;4.45;;;20.90;58.30;;;;;;5085571;28;20206;-30
2023/09/06 04:55:49;;;;;;;6.18;4.45;;;20.90;58.30;;;;;;5078800;28;20203;-29
2023/09/06 04:58:18;;;;;;;6.72;4.90;;;20.90;58.40;;;;;;5071721;28;20251;-30
2023/09/06 05:00:50;;;;;;;6.10;4.90;;;20.90;58.40;;;;;;5046259;28;20226;-30
2023/09/06 05:03:21;;;;;;;8.73;4.90;;;20.90;58.40;;;;;;5048339;28;20191;-30
2023/09/06 05:05:49;;;;;;;14.05;5.28;;;20.80;58.40;;;;;;5056039;28;20243;-30
2023/09/06 05:08:19;;;;;;;10.60;4.63;;;20.80;58.40;;;;;;5076309;28;20293;-29
2023/09/06 05:10:51;;;;;;;7.25;5.00;;;20.80;58.50;;;;;;5067298;28;20197;-31
2023/09/06 05:13:20;;;;;;;8.30;4.78;;;20.80;58.50;;;;;;5087877;28;20209;-30
2023/09/06 05:15:48;;;;;;;10.73;5.13;;;20.80;58.50;;;;;;5082545;28;20759;-30
2023/09/06 05:18:15;;;;;;;13.73;5.65;;;20.80;58.50;;;;;;5087400;28;20195;-30
2023/09/06 05:20:45;;;;;;;16.77;5.53;;;20.80;58.60;;;;;;5085828;28;20300;-30
2023/09/06 05:23:15;;;;;;;14.65;5.53;;;20.80;58.60;;;;;;5088637;28;20723;-30
2023/09/06 05:25:43;;;;;;;32.05;7.60;;;20.70;58.60;;;;;;5085408;28;20214;-30
2023/09/06 05:28:15;;;;;;;18.10;5.82;;;20.70;58.60;;;;;;5082370;28;20781;-30
2023/09/06 05:30:46;;;;;;;7.65;5.55;;;20.70;58.70;;;;;;5062990;28;20284;-30
2023/09/06 05:33:14;;;;;;;6.25;5.15;;;20.70;58.70;;;;;;5072143;28;20207;-30
2023/09/06 05:35:43;;;;;;;10.95;5.30;;;20.70;58.70;;;;;;5086767;28;20891;-30
2023/09/06 05:38:10;;;;;;;10.30;5.50;;;20.70;58.80;;;;;;5085932;28;20305;-30
2023/09/06 05:40:41;;;;;;;9.52;5.63;;;20.60;58.70;;;;;;5087411;28;20294;-30
2023/09/06 05:43:09;;;;;;;11.02;5.70;;;20.60;58.80;;;;;;5086184;28;20213;-30
2023/09/06 05:45:39;;;;;;;9.50;5.57;;;20.60;58.80;;;;;;5031903;28;20257;-30
2023/09/06 05:48:07;;;;;;;8.57;5.47;;;20.60;58.90;;;;;;5069033;28;20234;-30
2023/09/06 05:50:38;;;;;;;7.90;5.30;;;20.60;58.90;;;;;;5050355;28;20219;-26
2023/09/06 05:53:07;;;;;;;19.02;6.35;;;20.60;58.90;;;;;;5069330;28;20225;-26
2023/09/06 05:55:36;;;;;;;15.68;6.25;;;20.60;58.90;;;;;;5049299;28;20526;-26
2023/09/06 05:58:05;;;;;;;11.18;5.60;;;20.60;59.00;;;;;;5048755;28;20258;-27
2023/09/06 06:00:33;;;;;;;15.18;5.75;;;20.60;59.00;;;;;;5076292;28;20654;-26
2023/09/06 06:03:05;;;;;;;11.00;5.95;;;20.60;59.10;;;;;;5061162;28;20242;-26
2023/09/06 06:05:37;;;;;;;12.48;5.97;;;20.60;59.10;;;;;;5079190;28;20565;-26
2023/09/06 06:08:06;;;;;;;10.57;6.28;;;20.60;59.10;;;;;;5058124;28;20678;-26
2023/09/06 06:10:34;;;;;;;13.75;5.85;;;20.60;59.10;;;;;;5074186;28;20663;-26
2023/09/06 06:13:04;;;;;;;11.77;5.45;;;20.60;59.20;;;;;;5049045;28;20216;-26
2023/09/06 06:15:31;;;;;;;22.92;6.03;;;20.60;59.20;;;;;;5066308;28;20247;-26
2023/09/06 06:18:01;;;;;;;13.32;5.22;;;20.60;59.20;;;;;;5053154;28;20244;-26
2023/09/06 06:20:28;;;;;;;12.13;5.30;;;20.60;59.20;;;;;;5051924;28;20328;-26
2023/09/06 06:23:09;;;;;;;8.57;4.72;;;20.60;59.30;;;;;;5066073;28;20207;-26
2023/09/06 06:25:39;;;;;;;9.57;4.97;;;20.70;59.30;;;;;;5067042;28;20218;-26
2023/09/06 06:28:07;;;;;;;11.18;5.45;;;20.60;59.30;;;;;;5063636;28;20773;-26
2023/09/06 06:30:35;;;;;;;12.05;4.93;;;20.70;59.40;;;;;;5072907;28;20222;-26
2023/09/06 06:33:02;;;;;;;9.63;4.57;;;20.70;59.40;;;;;;5068395;28;20227;-27
2023/09/06 06:35:33;;;;;;;7.18;4.30;;;20.70;59.40;;;;;;5063158;28;20286;-26
2023/09/06 06:38:01;;;;;;;7.88;4.25;;;20.70;59.40;;;;;;5086548;28;20255;-26
2023/09/06 06:40:29;;;;;;;8.35;4.28;;;20.80;59.40;;;;;;5088119;28;20191;-30
2023/09/06 06:42:56;;;;;;;7.43;4.57;;;20.80;59.50;;;;;;5085129;28;20221;-26
2023/09/06 06:45:26;;;;;;;12.60;4.93;;;20.80;59.40;;;;;;5064876;28;20694;-26
2023/09/06 06:47:56;;;;;;;7.15;4.60;;;20.80;59.50;;;;;;5078963;28;20301;-26
2023/09/06 06:50:23;;;;;;;9.05;4.43;;;20.80;59.50;;;;;;5073202;28;20223;-26
2023/09/06 06:52:53;;;;;;;9.35;4.57;;;20.90;59.50;;;;;;5066073;28;20562;-26
2023/09/06 06:55:20;;;;;;;6.82;4.25;;;20.90;59.50;;;;;;5075766;28;20700;-27
2023/09/06 06:57:52;;;;;;;6.25;3.78;;;20.90;59.60;;;;;;5079300;28;20557;-26
2023/09/06 07:00:19;;;;;;;6.10;3.40;;;21.00;59.60;;;;;;5071977;28;20272;-26
2023/09/06 07:02:48;;;;;;;5.00;3.70;;;21.00;59.60;;;;;;5068554;28;20210;-26
2023/09/06 07:05:18;;;;;;;7.45;4.10;;;21.10;59.70;;;;;;5083556;28;20538;-30
2023/09/06 07:07:50;;;;;;;8.23;3.40;;;21.10;59.60;;;;;;5091995;28;20207;-26
2023/09/06 07:10:22;;;;;;;5.78;3.70;;;21.10;59.60;;;;;;5084329;28;20207;-26
2023/09/06 07:12:51;;;;;;;6.55;3.58;;;21.10;59.70;;;;;;5071168;28;20282;-26
2023/09/06 07:15:21;;;;;;;9.68;3.65;;;21.20;59.70;;;;;;5078053;28;20214;-26
2023/09/06 07:17:48;;;;;;;9.13;4.03;;;21.20;59.70;;;;;;5065914;28;20219;-26
2023/09/06 07:20:16;;;;;;;9.82;3.63;;;21.30;59.60;;;;;;5082000;28;20204;-26
2023/09/06 07:22:43;;;;;;;6.90;3.40;;;21.30;59.70;;;;;;5063897;28;20646;-26
2023/09/06 07:25:13;;;;;;;7.78;3.25;;;21.40;59.70;;;;;;5066618;28;20542;-26
2023/09/06 07:27:40;;;;;;;6.90;2.92;;;21.40;59.70;;;;;;5067989;28;20288;-26
2023/09/06 07:30:08;;;;;;;4.40;2.90;;;21.50;59.80;;;;;;5063896;28;20238;-26
2023/09/06 07:32:37;;;;;;;6.43;3.47;;;21.50;59.70;;;;;;5067740;28;20250;-26
2023/09/06 07:35:06;;;;;;;4.28;2.60;;;21.60;59.70;;;;;;5048549;28;20681;-26
2023/09/06 07:37:37;;;;;;;4.60;2.60;;;21.60;59.70;;;;;;5082829;28;20329;-26
2023/09/06 07:40:10;;;;;;;5.60;3.05;;;21.70;59.70;;;;;;5085814;28;20195;-26
2023/09/06 07:42:40;;;;;;;5.20;2.88;;;21.70;59.70;;;;;;5058936;28;20607;-26
2023/09/06 07:45:10;;;;;;;3.85;2.63;;;21.80;59.70;;;;;;5051624;28;20286;-26
2023/09/06 07:47:39;;;;;;;7.85;3.08;;;21.80;59.60;;;;;;5065036;28;20622;-26
2023/09/06 07:50:09;;;;;;;4.10;3.35;;;21.90;59.70;;;;;;5066466;28;20591;-26
2023/09/06 07:52:37;;;;;;;3.55;2.75;;;21.90;59.70;;;;;;5047889;28;20672;-26
2023/09/06 07:55:05;;;;;;;7.22;3.08;;;21.90;59.60;;;;;;5064736;28;20279;-26
2023/09/06 07:57:32;;;;;;;6.22;2.95;;;22.00;59.70;;;;;;5047668;28;20321;-26
2023/09/06 08:00:02;;;;;;;2.92;2.33;;;22.00;59.70;;;;;;5068380;28;20218;-26
2023/09/06 08:02:30;;;;;;;3.72;2.88;;;22.10;59.60;;;;;;5071017;28;20669;-27
2023/09/06 08:04:59;;;;;;;3.63;2.60;;;22.10;59.60;;;;;;5068425;28;20591;-26
2023/09/06 08:07:28;;;;;;;6.45;2.75;;;22.20;59.60;;;;;;5067044;28;20291;-26
2023/09/06 08:10:00;;;;;;;8.80;2.92;;;22.20;59.60;;;;;;5071983;28;20239;-26
2023/09/06 08:12:27;;;;;;;7.03;2.70;;;22.20;59.60;;;;;;5049125;28;20222;-26
2023/09/06 08:14:54;;;;;;;8.68;2.90;;;22.30;59.60;;;;;;5048813;28;20292;-26
2023/09/06 08:17:23;;;;;;;4.15;2.42;;;22.40;59.60;;;;;;5058226;28;20591;-26
2023/09/06 08:19:51;;;;;;;3.10;2.13;;;22.40;59.50;;;;;;5064949;28;20207;-26
2023/09/06 08:22:20;;;;;;;6.13;2.70;;;22.50;59.60;;;;;;5046768;28;20628;-26
2023/09/06 08:25:08;;;;;;;6.75;2.53;;;22.50;59.60;;;;;;5065693;28;20204;-26
2023/09/06 08:27:35;;;;;;;5.43;2.65;;;22.50;59.50;;;;;;5078916;28;20707;-26
2023/09/06 08:30:03;;;;;;;3.75;2.70;;;22.60;59.50;;;;;;5080480;28;20633;-26
2023/09/06 08:32:30;;;;;;;7.57;2.78;;;22.60;59.60;;;;;;5074047;28;20199;-26
2023/09/06 08:34:58;;;;;;;3.50;2.22;;;22.60;59.40;;;;;;5067448;28;20221;-26
2023/09/06 08:37:26;;;;;;;3.88;2.40;;;22.70;59.60;;;;;;5079774;28;20225;-26
2023/09/06 08:39:56;;;;;;;7.00;2.80;;;22.70;59.50;;;;;;5051895;28;20689;-26
2023/09/06 08:42:24;;;;;;;5.35;2.17;;;22.80;59.60;;;;;;5066125;28;20206;-26
2023/09/06 08:44:52;;;;;;;5.28;2.47;;;22.80;59.50;;;;;;5072290;28;20219;-26
2023/09/06 08:47:24;;;;;;;4.78;3.97;;;22.90;59.60;;;;;;5055612;28;20217;-26
2023/09/06 08:49:59;;;;;;;7.57;3.13;;;22.90;59.60;;;;;;5065914;28;20298;-26
2023/09/06 08:52:31;;;;;;;5.18;2.40;;;23.00;59.60;;;;;;5046948;28;20810;-26
2023/09/06 08:55:01;;;;;;;3.80;2.45;;;23.00;59.50;;;;;;5068070;28;20207;-26
2023/09/06 08:57:32;;;;;;;3.88;2.55;;;23.00;59.50;;;;;;5069549;28;20667;-26
2023/09/06 08:59:59;;;;;;;5.25;2.40;;;23.10;59.50;;;;;;5076412;28;20222;-27
2023/09/06 09:02:29;;;;;;;4.75;2.33;;;23.10;59.50;;;;;;5054603;28;20230;-26
2023/09/06 09:04:56;;;;;;;3.58;2.35;;;23.10;59.40;;;;;;5067064;28;20577;-26
2023/09/06 09:07:46;;;;;;;2.47;2.15;;;23.20;59.50;;;;;;5043353;28;20264;-26
2023/09/06 09:10:13;;;;;;;3.22;2.13;;;23.20;59.50;;;;;;5070400;28;20484;-26
2023/09/06 09:12:43;;;;;;;6.50;2.30;;;23.30;59.50;;;;;;5036887;28;20210;-26
2023/09/06 09:15:10;;;;;;;3.53;2.15;;;23.30;59.50;;;;;;5057974;28;20219;-26
2023/09/06 09:17:43;;;;;;;3.85;2.35;;;23.40;59.50;;;;;;5069678;28;20621;-26
2023/09/06 09:20:26;;;;;;;4.13;1.95;;;23.40;59.40;;;;;;5061268;28;20216;-26
2023/09/06 09:23:01;;;;;;;2.92;1.85;;;23.50;59.40;;;;;;5074874;28;20709;-26
2023/09/06 09:25:30;;;;;;;3.25;2.00;;;23.60;59.40;;;;;;5083324;28;20194;-26
2023/09/06 09:27:57;;;;;;;36.83;5.50;;;23.60;59.40;;;;;;5063717;28;20199;-26
2023/09/06 09:30:30;;;;;;;55.03;8.30;;;23.70;59.40;;;;;;5055756;28;20242;-26
2023/09/06 09:33:03;;;;;;;108.35;15.63;;;23.70;59.40;;;;;;5066912;28;20723;-26
2023/09/06 09:35:37;;;;;;;46.08;7.13;;;23.70;59.40;;;;;;5068977;28;20873;-26
2023/09/06 09:38:10;;;;;;;18.02;4.38;;;23.80;59.90;;;;;;5066171;28;20234;-26
2023/09/06 09:40:37;;;;;;;11.10;2.88;;;23.80;59.30;;;;;;5046664;28;20224;-26
2023/09/06 09:43:19;;;;;;;5.32;2.55;;;23.90;59.40;;;;;;5079508;28;20633;-26
2023/09/06 09:45:46;;;;;;;4.55;2.22;;;23.90;59.30;;;;;;5077270;28;20554;-26
2023/09/06 09:48:16;;;;;;;4.20;2.53;;;24.00;59.30;;;;;;5070646;28;20223;-26
2023/09/06 09:50:51;;;;;;;2.60;2.03;;;24.00;59.30;;;;;;5064676;28;20226;-33
2023/09/06 09:53:24;;;;;;;2.53;1.88;;;24.10;59.10;;;;;;5066271;28;20196;-26
2023/09/06 09:55:54;;;;;;;3.35;2.05;;;24.10;59.10;;;;;;5063233;28;20202;-26
2023/09/06 09:58:21;;;;;;;5.05;2.00;;;24.10;59.10;;;;;;5078334;28;20280;-26
2023/09/06 10:00:50;;;;;;;2.55;2.20;;;24.20;59.10;;;;;;5070712;28;20330;-28
2023/09/06 10:03:27;;;;;;;4.57;2.30;;;24.20;59.20;;;;;;5088922;28;20202;-27
2023/09/06 10:05:55;;;;;;;3.53;2.20;;;24.30;59.10;;;;;;5065152;28;20214;-26
2023/09/06 10:08:28;;;;;;;3.35;2.33;;;24.30;59.10;;;;;;5070551;28;20199;-26
2023/09/06 10:10:58;;;;;;;10.63;2.08;;;24.40;59.20;;;;;;5076300;28;20853;-26
2023/09/06 10:13:31;;;;;;;3.65;1.80;;;24.40;59.10;;;;;;5088716;28;20199;-26
2023/09/06 10:16:01;;;;;;;4.22;2.15;;;24.40;59.00;;;;;;5085595;28;20621;-26
2023/09/06 10:18:28;;;;;;;4.82;2.22;;;24.50;59.10;;;;;;5058322;28;20484;-26
2023/09/06 10:20:56;;;;;;;3.00;2.25;;;24.60;59.10;;;;;;5087902;28;20195;-26
2023/09/06 10:23:23;;;;;;;3.22;2.13;;;24.60;59.00;;;;;;5077896;28;20215;-27
2023/09/06 10:25:53;;;;;;;2.50;2.13;;;24.60;58.90;;;;;;5082733;28;20683;-26
2023/09/06 10:28:23;;;;;;;2.55;2.30;;;24.70;58.90;;;;;;5066551;28;20195;-26
2023/09/06 10:31:07;;;;;;;4.85;2.78;;;24.70;58.80;;;;;;5079060;28;20299;-26
2023/09/06 10:33:42;;;;;;;5.10;2.40;;;24.70;58.70;;;;;;5072192;28;20203;-25
2023/09/06 10:36:16;;;;;;;2.72;2.08;;;24.80;58.90;;;;;;5082328;28;20222;-26
2023/09/06 10:38:52;;;;;;;2.67;1.80;;;24.90;58.80;;;;;;5068314;28;20219;-26
2023/09/06 10:41:21;;;;;;;8.23;3.00;;;24.90;58.80;;;;;;5085675;28;20691;-26
2023/09/06 10:44:07;;;;;;;3.03;2.17;;;25.00;58.80;;;;;;5085099;28;20205;-26
2023/09/06 10:46:37;;;;;;;4.30;2.25;;;25.00;58.70;;;;;;5068468;28;20693;-26
2023/09/06 10:49:19;;;;;;;3.17;2.10;;;25.10;59.30;;;;;;5074325;28;20234;-26
2023/09/06 10:52:00;;;;;;;4.30;1.90;;;25.10;58.60;;;;;;5086414;28;20202;-26
2023/09/06 10:54:45;;;;;;;3.28;1.95;;;25.20;58.50;;;;;;5052672;28;20205;-30
2023/09/06 10:57:14;;;;;;;2.50;1.90;;;25.20;58.50;;;;;;5081610;28;20389;-32
2023/09/06 10:59:56;;;;;;;2.95;2.10;;;25.20;58.50;;;;;;5072820;28;20215;-31
2023/09/06 11:02:26;;;;;;;2.78;2.10;;;25.30;58.50;;;;;;5080038;28;20206;-32
2023/09/06 11:05:31;;;;;;;9.15;2.65;;;25.30;58.50;;;;;;5066448;28;20191;-31
2023/09/06 11:07:59;;;;;;;4.03;1.83;;;25.40;58.20;;;;;;5075925;28;20641;-31
2023/09/06 11:10:27;;;;;;;4.05;2.17;;;25.40;58.30;;;;;;5075789;28;20204;-32
2023/09/06 11:13:14;;;;;;;6.25;2.40;;;25.40;58.10;;;;;;5084281;28;20207;-31
2023/09/06 11:15:44;;;;;;;2.33;1.67;;;25.50;58.10;;;;;;5078658;28;20207;-31
2023/09/06 11:18:14;;;;;;;5.15;2.08;;;25.50;58.10;;;;;;5080354;28;20709;-31
2023/09/06 11:20:49;;;;;;;2.78;1.80;;;25.60;58.20;;;;;;5077160;28;20205;-31
2023/09/06 11:23:17;;;;;;;4.97;2.05;;;25.60;58.10;;;;;;5069447;28;20206;-32
2023/09/06 11:25:47;;;;;;;5.03;2.47;;;25.60;58.10;;;;;;5067299;28;20322;-29
2023/09/06 11:28:21;;;;;;;4.60;2.10;;;25.70;58.20;;;;;;5069013;28;20199;-27
2023/09/06 11:30:49;;;;;;;3.97;2.00;;;25.80;58.10;;;;;;5067387;28;20301;-25
2023/09/06 11:33:18;;;;;;;4.25;2.20;;;25.80;58.00;;;;;;5058355;28;20219;-25
2023/09/06 11:35:56;;;;;;;2.20;2.00;;;25.90;58.10;;;;;;5055633;28;20206;-25
2023/09/06 11:38:34;;;;;;;2.45;1.83;;;25.90;58.00;;;;;;5069333;28;20215;-25
2023/09/06 11:41:03;;;;;;;3.50;1.85;;;26.00;58.10;;;;;;5073708;28;20544;-25
2023/09/06 11:43:35;;;;;;;3.10;2.00;;;26.10;58.10;;;;;;5071956;28;20206;-25
2023/09/06 11:46:05;;;;;;;3.60;1.90;;;26.10;58.00;;;;;;5069659;28;20202;-26
2023/09/06 11:48:35;;;;;;;3.65;1.65;;;26.20;58.00;;;;;;5071994;28;20290;-25
2023/09/06 11:51:08;;;;;;;4.05;1.67;;;26.20;57.90;;;;;;5069299;28;20211;-25
2023/09/06 11:53:48;;;;;;;4.05;2.00;;;26.20;57.50;;;;;;5057580;28;20248;-25
2023/09/06 11:56:20;;;;;;;1.90;1.55;;;26.30;57.70;;;;;;5085224;28;20544;-25
2023/09/06 11:58:50;;;;;;;2.30;1.70;;;26.40;57.30;;;;;;5075463;28;20230;-25
2023/09/06 12:01:25;;;;;;;4.00;1.67;;;26.40;57.10;;;;;;5072247;28;20317;-25
2023/09/06 12:03:59;;;;;;;1.67;1.30;;;26.40;56.80;;;;;;5066246;28;20209;-25
2023/09/06 12:06:29;;;;;;;4.65;1.60;;;26.40;57.10;;;;;;5064808;28;20220;-25
2023/09/06 12:09:03;;;;;;;1.50;1.40;;;26.50;57.20;;;;;;5065236;28;20212;-25
2023/09/06 12:11:32;;;;;;;2.35;1.50;;;26.50;57.00;;;;;;5046481;28;20273;-25
2023/09/06 12:14:03;;;;;;;2.38;1.63;;;26.50;57.20;;;;;;5057867;28;20711;-25
2023/09/06 12:16:31;;;;;;;2.65;1.52;;;26.60;57.20;;;;;;5062141;28;20337;-26
2023/09/06 12:19:03;;;;;;;3.60;1.50;;;26.60;57.30;;;;;;5054553;28;20284;-25
2023/09/06 12:21:32;;;;;;;2.22;1.60;;;26.60;57.10;;;;;;5065264;28;20215;-25
2023/09/06 12:24:01;;;;;;;1.33;1.23;;;26.70;57.10;;;;;;5056402;28;20565;-25
2023/09/06 12:26:33;;;;;;;3.92;1.45;;;26.70;57.10;;;;;;5066633;28;20285;-25
2023/09/06 12:29:03;;;;;;;3.20;1.60;;;26.70;56.80;;;;;;5078294;28;20210;-25
2023/09/06 12:31:31;;;;;;;4.00;1.50;;;26.80;56.90;;;;;;5079682;28;20222;-25
2023/09/06 12:34:03;;;;;;;3.58;1.50;;;26.80;56.90;;;;;;5069421;28;20740;-25
2023/09/06 12:36:30;;;;;;;4.38;1.63;;;26.80;56.90;;;;;;5059027;28;20574;-26
2023/09/06 12:39:00;;;;;;;3.90;1.55;;;26.90;56.70;;;;;;5073103;28;20222;-25
2023/09/06 12:41:27;;;;;;;3.70;1.60;;;26.90;56.70;;;;;;5072669;28;20617;-25
2023/09/06 12:43:56;;;;;;;3.33;1.83;;;27.00;56.80;;;;;;5068862;28;20212;-25
2023/09/06 12:46:23;;;;;;;2.53;1.30;;;27.00;56.80;;;;;;5080587;28;20287;-25
2023/09/06 12:48:55;;;;;;;4.57;1.83;;;27.00;56.80;;;;;;5069435;28;20222;-25
2023/09/06 12:51:22;;;;;;;2.40;1.33;;;27.10;56.70;;;;;;5075707;28;20580;-26
2023/09/06 12:53:52;;;;;;;3.65;1.42;;;27.10;56.60;;;;;;5063957;28;20320;-25
2023/09/06 12:56:19;;;;;;;2.53;1.60;;;27.10;56.60;;;;;;5081015;28;20229;-25
2023/09/06 12:58:47;;;;;;;5.25;1.38;;;27.20;56.40;;;;;;5073282;28;20219;-26
2023/09/06 13:01:14;;;;;;;2.55;1.48;;;27.20;56.40;;;;;;5044090;28;20747;-26